Time;durP1;ratioP1;P1;durP2;ratioP2;P2;SDS_P1;SDS_P2;PMS_P1;PMS_P2;Temp;Humidity;BMP_temperature;BMP_pressure;BME280_temperature;BME280_humidity;BME280_pressure;Samples;Min_cycle;Max_cycle;Signal;HPM_P1;HPM_P2
2022/11/06 00:01:43;;;;;;;13.37;8.50;;;5.50;99.90;;;;;;4950081;28;20794;-90
2022/11/06 00:04:10;;;;;;;13.07;8.90;;;5.50;99.90;;;;;;4954080;28;20588;-90
2022/11/06 00:06:48;;;;;;;12.73;9.60;;;5.50;99.90;;;;;;4950378;28;20321;-90
2022/11/06 00:09:17;;;;;;;11.43;8.90;;;5.50;99.90;;;;;;4959791;28;20223;-90
2022/11/06 00:11:44;;;;;;;10.63;8.50;;;5.40;99.90;;;;;;4957303;28;20235;-90
2022/11/06 00:14:11;;;;;;;10.20;7.93;;;5.50;99.90;;;;;;4955154;28;20220;-90
2022/11/06 00:16:38;;;;;;;10.87;8.57;;;5.50;99.90;;;;;;4952610;28;20603;-90
2022/11/06 00:19:07;;;;;;;11.67;8.63;;;5.50;99.90;;;;;;4952490;28;20206;-90
2022/11/06 00:21:35;;;;;;;11.73;9.00;;;5.40;99.90;;;;;;4954817;28;20277;-90
2022/11/06 00:24:04;;;;;;;11.43;8.73;;;5.40;99.90;;;;;;4951286;28;20208;-91
2022/11/06 00:26:31;;;;;;;10.70;8.20;;;5.40;99.90;;;;;;4952977;28;20292;-90
2022/11/06 00:28:59;;;;;;;10.13;8.20;;;5.50;99.90;;;;;;4954769;28;20215;-90
2022/11/06 00:31:27;;;;;;;10.33;8.20;;;5.50;99.90;;;;;;4959338;28;20239;-90
2022/11/06 00:33:56;;;;;;;11.90;8.50;;;5.60;99.90;;;;;;4956330;28;20237;-90
2022/11/06 00:36:26;;;;;;;11.27;8.30;;;5.50;99.90;;;;;;4952162;28;20297;-91
2022/11/06 00:38:58;;;;;;;10.17;8.13;;;5.60;99.90;;;;;;4950905;28;20224;-90
2022/11/06 00:41:26;;;;;;;10.27;8.10;;;5.60;99.90;;;;;;4953064;28;20292;-89
2022/11/06 00:43:55;;;;;;;10.03;7.93;;;5.50;99.90;;;;;;4951571;28;20232;-91
2022/11/06 00:46:23;;;;;;;10.03;8.07;;;5.40;99.90;;;;;;4948353;28;20209;-90
2022/11/06 00:48:51;;;;;;;9.53;7.97;;;5.30;99.90;;;;;;4953398;28;20239;-90
2022/11/06 00:51:20;;;;;;;10.53;7.70;;;5.20;99.90;;;;;;4953158;28;20324;-90
2022/11/06 00:53:53;;;;;;;9.73;7.83;;;5.20;99.90;;;;;;4954247;28;20663;-90
2022/11/06 00:56:20;;;;;;;9.80;8.10;;;5.20;99.90;;;;;;4953022;28;20249;-89
2022/11/06 00:58:48;;;;;;;10.53;8.53;;;5.10;99.90;;;;;;4954399;28;20206;-89
2022/11/06 01:01:17;;;;;;;11.67;8.20;;;5.10;99.90;;;;;;4950648;28;20301;-89
2022/11/06 01:03:46;;;;;;;12.17;9.00;;;5.20;99.90;;;;;;4959049;28;20741;-89
2022/11/06 01:06:18;;;;;;;11.07;8.50;;;5.30;99.90;;;;;;4954161;28;20229;-90
2022/11/06 01:08:46;;;;;;;11.97;7.80;;;5.40;99.90;;;;;;4951980;28;20293;-90
2022/11/06 01:11:19;;;;;;;10.00;7.83;;;5.20;99.90;;;;;;4954328;28;20706;-89
2022/11/06 01:13:49;;;;;;;9.23;7.13;;;5.20;99.90;;;;;;4951620;28;20224;-90
2022/11/06 01:16:17;;;;;;;10.07;7.63;;;5.20;99.90;;;;;;4948879;28;20760;-89
2022/11/06 01:18:45;;;;;;;10.47;7.30;;;5.10;99.90;;;;;;4949025;28;20213;-89
2022/11/06 01:21:16;;;;;;;9.30;7.07;;;5.00;99.90;;;;;;4958155;28;20213;-90
2022/11/06 01:23:44;;;;;;;8.27;7.00;;;5.00;99.90;;;;;;4956412;28;20300;-90
2022/11/06 01:26:13;;;;;;;10.10;7.53;;;4.90;99.90;;;;;;4949127;28;20237;-90
2022/11/06 01:28:41;;;;;;;9.47;7.47;;;4.80;99.90;;;;;;4953052;28;20304;-90
2022/11/06 01:31:17;;;;;;;8.43;6.60;;;4.80;99.90;;;;;;4953100;28;20339;-90
2022/11/06 01:33:45;;;;;;;9.27;6.93;;;4.70;99.90;;;;;;4950474;28;20216;-90
2022/11/06 01:36:13;;;;;;;9.07;7.30;;;4.70;99.90;;;;;;4951474;28;20223;-90
2022/11/06 01:38:41;;;;;;;9.47;6.60;;;4.80;99.90;;;;;;4954466;28;20200;-89
2022/11/06 01:41:08;;;;;;;7.57;6.77;;;4.80;99.90;;;;;;4958348;28;20300;-90
2022/11/06 01:43:48;;;;;;;10.37;6.77;;;4.90;99.90;;;;;;4955136;28;20211;-90
2022/11/06 01:46:15;;;;;;;8.87;6.63;;;4.90;99.90;;;;;;4957869;28;20224;-89
2022/11/06 01:48:46;;;;;;;7.33;6.20;;;4.90;99.90;;;;;;4955410;28;20213;-90
2022/11/06 01:51:14;;;;;;;8.80;6.93;;;4.90;99.90;;;;;;4963728;28;20259;-89
2022/11/06 01:53:41;;;;;;;7.53;5.97;;;4.70;99.90;;;;;;4951555;28;20343;-90
2022/11/06 01:56:09;;;;;;;6.57;5.50;;;4.70;99.90;;;;;;4956779;28;20228;-90
2022/11/06 01:58:39;;;;;;;8.00;6.07;;;4.60;99.90;;;;;;4955814;28;20271;-89
2022/11/06 02:01:08;;;;;;;7.30;6.10;;;4.60;99.90;;;;;;4958067;28;20303;-89
2022/11/06 02:03:36;;;;;;;7.70;6.43;;;4.60;99.90;;;;;;4957703;28;20267;-89
2022/11/06 02:06:05;;;;;;;7.13;5.47;;;4.60;99.90;;;;;;4955932;28;20300;-90
2022/11/06 02:08:32;;;;;;;8.50;5.87;;;4.70;99.90;;;;;;4955001;28;20209;-89
2022/11/06 02:10:59;;;;;;;6.37;5.43;;;4.60;99.90;;;;;;4957127;28;20318;-90
2022/11/06 02:13:36;;;;;;;7.30;5.83;;;4.50;99.90;;;;;;4952647;28;20232;-90
2022/11/06 02:16:26;;;;;;;6.53;5.60;;;4.50;99.90;;;;;;4960274;28;20208;-90
2022/11/06 02:19:11;;;;;;;7.70;5.40;;;4.50;99.90;;;;;;4960055;28;20299;-89
2022/11/06 02:22:08;;;;;;;6.00;5.40;;;4.40;99.90;;;;;;4958585;28;20324;-89
2022/11/06 02:24:56;;;;;;;7.80;5.97;;;4.40;99.90;;;;;;4957257;28;20292;-90
2022/11/06 02:27:31;;;;;;;6.93;5.73;;;4.30;99.90;;;;;;4955153;28;20209;-90
2022/11/06 02:30:02;;;;;;;6.70;5.90;;;4.30;99.90;;;;;;4956771;28;20212;-90
2022/11/06 02:32:37;;;;;;;5.33;4.80;;;4.20;99.90;;;;;;4950622;28;20287;-90
2022/11/06 02:35:15;;;;;;;6.70;5.50;;;4.20;99.90;;;;;;4954433;28;20204;-90
2022/11/06 02:37:44;;;;;;;6.17;5.57;;;4.30;99.90;;;;;;4949959;28;20806;-90
2022/11/06 02:40:13;;;;;;;6.77;5.40;;;4.40;99.90;;;;;;4957248;28;20213;-90
2022/11/06 02:42:45;;;;;;;7.03;5.40;;;4.40;99.90;;;;;;4953382;28;20339;-90
2022/11/06 02:45:18;;;;;;;5.60;4.87;;;4.30;99.90;;;;;;4953226;28;20308;-89
2022/11/06 02:47:54;;;;;;;6.07;4.87;;;4.20;99.90;;;;;;4956761;28;20223;-90
2022/11/06 02:50:25;;;;;;;6.07;4.90;;;4.20;99.90;;;;;;4954879;28;20216;-88
2022/11/06 02:52:55;;;;;;;6.03;5.20;;;4.10;99.90;;;;;;4956567;28;20296;-89
2022/11/06 02:55:29;;;;;;;6.80;5.30;;;4.00;99.90;;;;;;4956921;28;20206;-90
2022/11/06 02:58:00;;;;;;;6.50;5.67;;;4.00;99.90;;;;;;4956330;28;20312;-89
2022/11/06 03:00:27;;;;;;;6.20;4.97;;;4.00;99.90;;;;;;4954388;28;20695;-90
2022/11/06 03:02:59;;;;;;;6.30;5.30;;;4.00;99.90;;;;;;4955013;28;20245;-89
2022/11/06 03:05:32;;;;;;;6.40;5.20;;;3.90;99.90;;;;;;4950438;28;20209;-89
2022/11/06 03:08:05;;;;;;;6.27;4.97;;;3.90;99.90;;;;;;4950524;28;20215;-89
2022/11/06 03:10:38;;;;;;;7.47;5.87;;;3.90;99.90;;;;;;4951444;28;20296;-88
2022/11/06 03:13:14;;;;;;;6.63;5.50;;;3.80;99.90;;;;;;4954159;28;20236;-89
2022/11/06 03:15:47;;;;;;;5.67;4.90;;;3.90;99.90;;;;;;4951307;28;20731;-89
2022/11/06 03:18:19;;;;;;;5.50;4.60;;;3.90;99.90;;;;;;4947665;28;20208;-89
2022/11/06 03:20:56;;;;;;;6.20;5.13;;;4.00;99.90;;;;;;4960804;28;20215;-90
2022/11/06 03:23:28;;;;;;;6.33;5.00;;;4.10;99.90;;;;;;4958919;28;20217;-89
2022/11/06 03:26:02;;;;;;;6.37;5.43;;;4.10;99.90;;;;;;4951566;28;20215;-88
2022/11/06 03:28:33;;;;;;;6.10;4.93;;;4.00;99.90;;;;;;4951531;28;20609;-89
2022/11/06 03:31:05;;;;;;;6.20;5.43;;;3.90;99.90;;;;;;4952705;28;20236;-89
2022/11/06 03:33:38;;;;;;;7.20;5.83;;;3.80;99.90;;;;;;4962312;28;20299;-89
2022/11/06 03:36:12;;;;;;;6.33;5.17;;;3.80;99.90;;;;;;4958118;28;20235;-89
2022/11/06 03:38:41;;;;;;;5.30;4.77;;;3.70;99.90;;;;;;4956776;28;20755;-89
2022/11/06 03:41:13;;;;;;;7.63;5.70;;;3.70;99.90;;;;;;4959234;28;20231;-89
2022/11/06 03:43:44;;;;;;;5.67;4.97;;;3.70;99.90;;;;;;4952969;28;21198;-90
2022/11/06 03:46:15;;;;;;;6.33;5.23;;;3.70;99.90;;;;;;4954698;28;20216;-89
2022/11/06 03:48:46;;;;;;;6.77;5.20;;;3.70;99.90;;;;;;4953403;28;20209;-89
2022/11/06 03:51:19;;;;;;;5.67;4.83;;;3.60;99.90;;;;;;4958126;28;20236;-89
2022/11/06 03:53:49;;;;;;;6.63;5.30;;;3.60;99.90;;;;;;4953998;28;20260;-89
2022/11/06 03:56:25;;;;;;;6.90;5.27;;;3.60;99.90;;;;;;4959380;28;20288;-89
2022/11/06 03:58:56;;;;;;;5.53;4.90;;;3.50;99.90;;;;;;4960882;28;20223;-89
2022/11/06 04:01:36;;;;;;;6.20;5.10;;;3.50;99.90;;;;;;4956090;28;20332;-89
2022/11/06 04:04:10;;;;;;;5.67;5.00;;;3.50;99.90;;;;;;4947516;28;20233;-89
2022/11/06 04:06:44;;;;;;;5.97;4.90;;;3.40;99.90;;;;;;4963958;28;20244;-89
2022/11/06 04:14:52;;;;;;;7.97;5.20;;;3.30;99.90;;;;;;4960210;28;20216;-89
2022/11/06 04:17:22;;;;;;;7.43;4.70;;;3.30;99.90;;;;;;4959091;28;20240;-89
2022/11/06 04:19:54;;;;;;;6.17;5.27;;;3.30;99.90;;;;;;4955646;28;20215;-89
2022/11/06 04:22:44;;;;;;;5.37;4.87;;;3.30;99.90;;;;;;4958092;28;20651;-89
2022/11/06 04:28:19;;;;;;;6.07;4.63;;;3.20;99.90;;;;;;4955656;28;20220;-89
2022/11/06 04:31:01;;;;;;;5.53;4.30;;;3.20;99.90;;;;;;4956999;28;20296;-88
2022/11/06 04:33:34;;;;;;;5.80;4.60;;;3.30;99.90;;;;;;4947644;28;20214;-88
2022/11/06 04:36:08;;;;;;;5.50;4.87;;;3.10;99.90;;;;;;4957323;28;20587;-87
2022/11/06 04:38:42;;;;;;;4.93;4.43;;;3.00;99.90;;;;;;4954600;28;20315;-88
2022/11/06 04:41:19;;;;;;;4.97;4.47;;;3.00;99.90;;;;;;4954982;28;20215;-89
2022/11/06 04:43:49;;;;;;;8.97;4.67;;;3.00;99.90;;;;;;4956023;28;20287;-89
2022/11/06 04:46:32;;;;;;;6.17;4.40;;;3.00;99.90;;;;;;4953406;28;20225;-89
2022/11/06 04:49:00;;;;;;;5.30;4.50;;;3.10;99.90;;;;;;4958045;28;20228;-88
2022/11/06 04:51:31;;;;;;;5.03;4.27;;;3.10;99.90;;;;;;4950989;28;20325;-88
2022/11/06 04:53:59;;;;;;;5.27;4.10;;;3.10;99.90;;;;;;4949844;28;20324;-89
2022/11/06 04:56:30;;;;;;;5.43;4.20;;;3.20;99.90;;;;;;4950823;28;20230;-89
2022/11/06 04:58:57;;;;;;;5.03;4.03;;;3.30;99.90;;;;;;4946750;28;20241;-88
2022/11/06 05:01:26;;;;;;;5.83;4.17;;;3.30;99.90;;;;;;4950648;28;20209;-88
2022/11/06 05:03:52;;;;;;;4.67;4.10;;;3.30;99.90;;;;;;4949075;28;20217;-89
2022/11/06 05:06:19;;;;;;;4.70;4.03;;;3.30;99.90;;;;;;4954870;28;20213;-88
2022/11/06 05:08:47;;;;;;;5.20;4.00;;;3.30;99.90;;;;;;4952664;28;20217;-89
2022/11/06 05:11:14;;;;;;;5.47;3.73;;;3.30;99.90;;;;;;4960275;28;21614;-86
2022/11/06 05:13:41;;;;;;;4.23;3.73;;;3.10;99.90;;;;;;4960993;28;20219;-88
2022/11/06 05:16:08;;;;;;;5.60;4.10;;;3.00;99.90;;;;;;4956557;28;20208;-88
2022/11/06 05:18:36;;;;;;;4.07;3.67;;;3.10;99.90;;;;;;4960877;28;20700;-87
2022/11/06 05:23:48;;;;;;;5.23;4.10;;;2.90;99.90;;;;;;4957376;28;20654;-89
2022/11/06 05:26:15;;;;;;;5.33;3.70;;;2.90;99.90;;;;;;4954535;28;20682;-89
2022/11/06 05:28:42;;;;;;;5.30;3.80;;;2.90;99.90;;;;;;4954921;28;20627;-88
2022/11/06 05:31:09;;;;;;;4.00;3.60;;;2.90;99.90;;;;;;4959289;28;20322;-88
2022/11/06 05:33:38;;;;;;;4.30;3.50;;;2.90;99.90;;;;;;4952022;28;20259;-88
2022/11/06 05:36:06;;;;;;;3.60;3.17;;;2.80;99.90;;;;;;4956856;28;20220;-88
2022/11/06 05:38:33;;;;;;;4.00;3.60;;;2.70;99.90;;;;;;4951870;28;20574;-88
2022/11/06 05:41:01;;;;;;;4.23;3.53;;;2.70;99.90;;;;;;4950948;28;20209;-88
2022/11/06 05:43:28;;;;;;;3.67;3.20;;;2.70;99.90;;;;;;4950671;28;20216;-88
2022/11/06 05:45:55;;;;;;;4.53;3.47;;;2.70;99.90;;;;;;4953680;28;20244;-88
2022/11/06 05:48:21;;;;;;;3.90;3.37;;;2.80;99.90;;;;;;4952043;28;20292;-88
2022/11/06 05:50:50;;;;;;;3.83;3.47;;;2.80;99.90;;;;;;4950423;28;20736;-88
2022/11/06 05:53:17;;;;;;;3.57;3.20;;;2.90;99.90;;;;;;4949945;28;20237;-88
2022/11/06 05:55:46;;;;;;;7.40;3.60;;;2.90;99.90;;;;;;4948906;28;20208;-88
2022/11/06 05:58:12;;;;;;;3.80;3.33;;;2.90;99.90;;;;;;4956440;28;20240;-88
2022/11/06 06:00:39;;;;;;;4.20;3.80;;;2.90;99.90;;;;;;4947838;28;20880;-88
2022/11/06 06:03:06;;;;;;;4.30;3.73;;;2.80;99.90;;;;;;4942985;28;20209;-88
2022/11/06 06:05:33;;;;;;;3.67;3.33;;;2.80;99.90;;;;;;4935406;28;20216;-88
2022/11/06 06:08:01;;;;;;;4.40;3.70;;;2.90;99.90;;;;;;4948087;28;20260;-88
2022/11/06 06:10:28;;;;;;;4.93;3.23;;;2.90;99.90;;;;;;4951834;28;20573;-88
2022/11/06 06:12:55;;;;;;;4.83;3.40;;;2.80;99.90;;;;;;4947367;28;20233;-88
2022/11/06 06:15:22;;;;;;;3.13;2.83;;;2.80;99.90;;;;;;4944384;28;20304;-88
2022/11/06 06:17:49;;;;;;;3.40;3.10;;;3.00;99.90;;;;;;4949346;28;20228;-88
2022/11/06 06:20:16;;;;;;;4.27;3.40;;;3.00;99.90;;;;;;4951948;28;20209;-88
2022/11/06 06:22:43;;;;;;;3.63;3.33;;;3.00;99.90;;;;;;4944418;28;20602;-88
2022/11/06 06:25:12;;;;;;;3.47;3.10;;;3.00;99.90;;;;;;4961734;28;20208;-88
2022/11/06 06:27:38;;;;;;;4.67;3.57;;;3.00;99.90;;;;;;4953542;28;20239;-88
2022/11/06 06:30:06;;;;;;;4.27;3.63;;;3.00;99.90;;;;;;4962687;28;20566;-88
2022/11/06 06:32:39;;;;;;;4.03;3.60;;;2.90;99.90;;;;;;4961231;28;20225;-88
2022/11/06 06:35:07;;;;;;;3.97;3.57;;;3.00;99.90;;;;;;4944963;28;20233;-87
2022/11/06 06:37:33;;;;;;;3.97;3.57;;;3.00;99.90;;;;;;4955371;28;20241;-86
2022/11/06 06:40:00;;;;;;;4.90;4.10;;;3.00;99.90;;;;;;4952377;28;20299;-87
2022/11/06 06:42:29;;;;;;;5.53;3.70;;;3.10;99.90;;;;;;4962470;28;20219;-87
2022/11/06 06:44:56;;;;;;;4.20;3.80;;;3.00;99.90;;;;;;4952558;28;20631;-87
2022/11/06 06:47:27;;;;;;;4.17;3.67;;;3.10;99.90;;;;;;4945108;28;20212;-87
2022/11/06 06:49:54;;;;;;;3.90;3.43;;;3.10;99.90;;;;;;4951465;28;20573;-87
2022/11/06 06:52:21;;;;;;;4.10;3.70;;;3.10;99.90;;;;;;4944613;28;20252;-87
2022/11/06 06:54:48;;;;;;;5.53;3.90;;;3.20;99.90;;;;;;4952050;28;20320;-87
2022/11/06 06:57:16;;;;;;;4.80;4.23;;;3.30;99.90;;;;;;4959857;28;20296;-87
2022/11/06 06:59:44;;;;;;;4.27;3.87;;;3.30;99.90;;;;;;4951778;28;20220;-87
2022/11/06 07:02:15;;;;;;;5.13;4.47;;;3.20;99.90;;;;;;4953721;28;20308;-87
2022/11/06 07:04:42;;;;;;;5.47;4.97;;;3.40;99.90;;;;;;4954874;28;20209;-87
2022/11/06 07:07:09;;;;;;;5.83;4.53;;;3.40;99.90;;;;;;4954513;28;20217;-87
2022/11/06 07:09:36;;;;;;;7.10;4.60;;;3.50;99.90;;;;;;4951511;28;20621;-87
2022/11/06 07:12:04;;;;;;;6.87;4.83;;;3.60;99.90;;;;;;4962926;28;20324;-89
2022/11/06 07:14:31;;;;;;;128.63;88.20;;;3.70;99.90;;;;;;4957713;28;20213;-88
2022/11/06 07:16:59;;;;;;;116.43;76.87;;;4.30;99.90;;;;;;4965606;28;20735;-89
2022/11/06 07:19:26;;;;;;;87.70;58.13;;;4.80;99.90;;;;;;4966854;28;20222;-89
2022/11/06 07:21:53;;;;;;;61.53;43.17;;;5.70;99.90;;;;;;4958752;28;20220;-89
2022/11/06 07:24:20;;;;;;;8.30;7.20;;;6.00;99.90;;;;;;4964034;28;20241;-88
2022/11/06 07:26:47;;;;;;;39.77;29.50;;;6.20;99.00;;;;;;4958518;28;20300;-89
2022/11/06 07:29:14;;;;;;;10.73;8.47;;;5.90;99.50;;;;;;4964812;28;20217;-89
2022/11/06 07:31:41;;;;;;;30.90;22.97;;;6.10;97.00;;;;;;4961598;28;20252;-89
2022/11/06 07:34:10;;;;;;;48.97;33.43;;;6.20;98.50;;;;;;4959669;28;20209;-89
2022/11/06 07:36:37;;;;;;;101.33;69.57;;;6.70;98.40;;;;;;4957121;28;20213;-89
2022/11/06 07:39:04;;;;;;;73.47;50.47;;;6.90;98.10;;;;;;4955913;28;20304;-89
2022/11/06 07:41:31;;;;;;;55.87;40.63;;;7.40;97.10;;;;;;4956554;28;20210;-89
2022/11/06 07:43:58;;;;;;;15.40;11.95;;;7.60;95.60;;;;;;4956262;28;20213;-89
2022/11/06 07:46:25;;;;;;;28.00;21.45;;;7.60;93.80;;;;;;4956406;28;20272;-89
2022/11/06 07:48:53;;;;;;;16.55;13.07;;;7.40;96.90;;;;;;4957831;28;20321;-89
2022/11/06 07:51:21;;;;;;;15.57;12.35;;;7.90;95.70;;;;;;4957155;28;20236;-89
2022/11/06 07:53:48;;;;;;;6.03;4.90;;;8.00;95.70;;;;;;4961448;28;20590;-89
2022/11/06 07:56:15;;;;;;;8.43;6.88;;;8.10;92.70;;;;;;4969145;28;20699;-89
2022/11/06 07:58:42;;;;;;;11.02;8.10;;;7.90;94.60;;;;;;4964376;28;20599;-90
2022/11/06 08:01:14;;;;;;;6.90;5.78;;;7.60;95.60;;;;;;4969721;28;20315;-88
2022/11/06 08:03:41;;;;;;;6.90;6.20;;;7.50;95.60;;;;;;4960446;28;20212;-90
2022/11/06 08:06:08;;;;;;;5.90;5.30;;;7.40;95.80;;;;;;4962520;28;20300;-89
2022/11/06 08:11:18;;;;;;;6.82;5.82;;;7.20;96.80;;;;;;4952776;28;20376;-89
2022/11/06 08:13:51;;;;;;;5.95;5.45;;;7.20;97.80;;;;;;4968334;28;20233;-90
2022/11/06 08:16:18;;;;;;;6.15;5.55;;;7.20;98.00;;;;;;4964512;28;20260;-89
2022/11/06 08:18:45;;;;;;;7.70;6.38;;;7.20;97.70;;;;;;4963301;28;20231;-90
2022/11/06 08:21:15;;;;;;;7.13;6.40;;;7.20;98.10;;;;;;4962024;28;20206;-90
2022/11/06 08:23:44;;;;;;;7.22;6.30;;;7.30;98.00;;;;;;4956490;28;20204;-89
2022/11/06 08:26:11;;;;;;;7.03;6.32;;;7.50;97.80;;;;;;4950143;28;20213;-89
2022/11/06 08:28:38;;;;;;;7.13;6.35;;;7.40;97.80;;;;;;4942327;28;20569;-89
2022/11/06 08:31:06;;;;;;;7.47;6.57;;;7.70;98.80;;;;;;4952467;28;20292;-91
2022/11/06 08:33:33;;;;;;;9.13;7.13;;;8.10;98.50;;;;;;4946200;28;20216;-89
2022/11/06 08:36:04;;;;;;;7.40;6.70;;;8.00;96.80;;;;;;4954751;28;20314;-90
2022/11/06 08:38:34;;;;;;;7.38;6.68;;;8.20;96.40;;;;;;4950778;28;20206;-90
2022/11/06 08:41:41;;;;;;;8.65;6.28;;;8.50;96.30;;;;;;4953473;28;20287;-92
2022/11/06 08:50:40;;;;;;;6.00;5.40;;;9.60;94.10;;;;;;4983163;28;20191;-91
2022/11/06 08:55:57;;;;;;;5.75;5.20;;;10.60;90.40;;;;;;4978731;28;20205;-92
2022/11/06 08:58:24;;;;;;;5.65;5.15;;;11.10;88.50;;;;;;4968656;28;20272;-91
2022/11/06 09:00:51;;;;;;;5.18;4.68;;;11.90;80.90;;;;;;4979687;28;20220;-92
2022/11/06 09:03:20;;;;;;;6.70;5.00;;;12.00;75.20;;;;;;4964452;28;20563;-90
2022/11/06 09:05:47;;;;;;;5.45;4.95;;;11.90;75.10;;;;;;4971854;28;20268;-93
2022/11/06 09:23:21;;;;;;;5.53;5.03;;;11.90;75.10;;;;;;4894830;29;20213;-92
2022/11/06 09:29:28;;;;;;;5.45;4.95;;;10.40;84.40;;;;;;4918002;29;20198;-91
2022/11/06 09:32:10;;;;;;;6.40;4.50;;;10.80;86.60;;;;;;4918136;29;20238;-92
2022/11/06 09:34:36;;;;;;;5.32;4.80;;;11.60;82.10;;;;;;4917234;29;20254;-92
2022/11/06 09:40:30;;;;;;;4.50;4.10;;;12.80;64.90;;;;;;4916382;29;20634;-91
2022/11/06 09:46:24;;;;;;;5.50;4.68;;;12.70;62.70;;;;;;4951712;28;20689;-92
2022/11/06 09:48:58;;;;;;;5.20;4.70;;;12.80;59.80;;;;;;4950550;29;20260;-91
2022/11/06 09:51:32;;;;;;;4.68;4.13;;;12.80;57.60;;;;;;4953324;28;20312;-91
2022/11/06 09:54:05;;;;;;;4.70;4.30;;;12.70;57.60;;;;;;5214205;23;20332;-91
2022/11/06 09:57:15;;;;;;;4.72;4.32;;;13.50;54.90;;;;;;4997675;28;20251;-92
2022/11/06 10:07:03;;;;;;;4.35;3.95;;;14.10;49.60;;;;;;4995819;28;20246;-91
2022/11/06 10:26:19;;;;;;;4.15;3.83;;;13.50;50.00;;;;;;4996064;28;20199;-92
2022/11/06 10:29:31;;;;;;;3.97;3.67;;;14.20;46.30;;;;;;4987202;28;20283;-91
2022/11/06 10:48:46;;;;;;;3.75;3.45;;;13.20;49.70;;;;;;4988966;28;20215;-92
2022/11/06 11:15:15;;;;;;;4.65;3.42;;;11.10;75.20;;;;;;4859458;29;20220;-91
2022/11/06 11:25:18;;;;;;;5.13;4.25;;;10.90;79.50;;;;;;4897709;29;20273;-91
2022/11/06 11:31:11;;;;;;;4.00;3.60;;;10.60;75.80;;;;;;4970075;28;20236;-93
2022/11/06 11:33:41;;;;;;;4.65;4.03;;;10.30;78.90;;;;;;4962071;28;20239;-94
2022/11/06 11:36:10;;;;;;;4.05;3.65;;;10.30;80.50;;;;;;4968568;28;20202;-94
2022/11/06 11:38:39;;;;;;;4.13;3.72;;;10.40;76.90;;;;;;4972257;28;20251;-93
2022/11/06 12:08:53;;;;;;;3.45;3.15;;;10.50;83.60;;;;;;5031935;28;20244;-92
2022/11/06 12:25:29;;;;;;;3.05;2.75;;;10.70;82.50;;;;;;5035920;28;20190;-92
2022/11/06 12:35:06;;;;;;;3.05;2.75;;;10.40;82.40;;;;;;5038445;28;20222;-93
2022/11/06 12:41:39;;;;;;;2.60;2.40;;;10.50;83.20;;;;;;5031305;28;20197;-92
2022/11/06 12:48:15;;;;;;;2.70;2.50;;;10.60;81.30;;;;;;5023630;28;20185;-91
2022/11/06 13:00:21;;;;;;;2.95;2.65;;;10.20;86.40;;;;;;4965045;28;20207;-91
2022/11/06 13:03:27;;;;;;;2.45;2.25;;;10.40;84.40;;;;;;4975783;28;20208;-91
2022/11/06 13:12:50;;;;;;;2.83;2.63;;;10.70;82.90;;;;;;4899766;29;20319;-91
2022/11/06 13:25:32;;;;;;;3.10;2.80;;;10.90;79.50;;;;;;4898595;29;20203;-90
2022/11/06 13:41:19;;;;;;;2.58;2.33;;;10.50;84.80;;;;;;4916974;29;20695;-91
2022/11/06 14:09:29;;;;;;;2.08;1.88;;;10.30;81.10;;;;;;5014225;28;20227;-91
2022/11/06 14:22:30;;;;;;;2.47;2.28;;;10.20;83.80;;;;;;5015260;28;20190;-91
2022/11/06 14:28:40;;;;;;;2.45;2.25;;;10.10;88.20;;;;;;4992943;28;20231;-91
2022/11/06 14:34:57;;;;;;;2.55;2.35;;;10.20;89.40;;;;;;5012318;28;20225;-91
2022/11/06 14:43:55;;;;;;;2.75;2.55;;;10.20;89.00;;;;;;5012767;28;20537;-90
2022/11/06 14:46:53;;;;;;;2.85;2.58;;;10.10;88.70;;;;;;5013519;28;20241;-89
2022/11/06 14:59:20;;;;;;;3.95;3.00;;;9.80;91.50;;;;;;4970035;28;20221;-93
2022/11/06 15:02:02;;;;;;;3.47;3.00;;;9.70;92.20;;;;;;4976304;28;20620;-92
2022/11/06 15:04:58;;;;;;;3.33;3.03;;;9.60;92.60;;;;;;4975501;28;20213;-93
2022/11/06 15:07:58;;;;;;;3.45;3.10;;;9.50;93.20;;;;;;4971929;28;20262;-91
2022/11/06 15:10:47;;;;;;;3.22;2.92;;;9.50;93.30;;;;;;4972533;28;20204;-94
2022/11/06 15:13:35;;;;;;;3.67;3.38;;;9.40;93.80;;;;;;4974871;28;20292;-93
2022/11/06 15:16:09;;;;;;;4.57;3.20;;;9.40;94.30;;;;;;4986092;28;20209;-92
2022/11/06 15:18:58;;;;;;;3.70;3.40;;;9.20;94.80;;;;;;4978751;28;20294;-92
2022/11/06 15:21:30;;;;;;;5.63;3.55;;;9.20;95.20;;;;;;4970967;28;20351;-88
2022/11/06 15:24:03;;;;;;;3.83;3.38;;;9.10;95.90;;;;;;4998925;28;20191;-89
2022/11/06 15:26:37;;;;;;;4.93;3.60;;;9.10;95.90;;;;;;4983915;28;20204;-90
2022/11/06 15:29:45;;;;;;;3.45;3.15;;;9.10;95.90;;;;;;4988195;28;20590;-92
2022/11/06 15:32:20;;;;;;;3.70;3.10;;;9.00;95.90;;;;;;5013423;28;20625;-93
2022/11/06 15:38:15;;;;;;;3.40;3.10;;;8.90;95.90;;;;;;4965016;28;20651;-92
2022/11/06 15:40:43;;;;;;;3.40;3.10;;;8.80;96.20;;;;;;4972892;28;20764;-91
2022/11/06 15:43:23;;;;;;;3.60;3.30;;;8.80;96.90;;;;;;4971952;28;20683;-89
2022/11/06 15:46:06;;;;;;;3.55;3.25;;;8.70;96.70;;;;;;4974589;28;20303;-92
2022/11/06 15:48:42;;;;;;;3.95;3.35;;;8.60;96.90;;;;;;4970542;28;20251;-93
2022/11/06 15:51:21;;;;;;;3.50;3.20;;;8.60;97.40;;;;;;4967626;28;20276;-90
2022/11/06 15:53:48;;;;;;;4.32;3.92;;;8.40;97.60;;;;;;4974487;28;20240;-90
2022/11/06 15:56:18;;;;;;;4.90;4.22;;;8.30;97.90;;;;;;4980762;28;20290;-90
2022/11/06 15:58:45;;;;;;;4.50;3.83;;;8.20;98.40;;;;;;4965119;28;20587;-91
2022/11/06 16:01:31;;;;;;;4.05;3.72;;;8.20;98.80;;;;;;4973751;28;20589;-92
2022/11/06 16:04:02;;;;;;;9.90;6.60;;;8.20;98.90;;;;;;4966794;28;20414;-92
2022/11/06 16:06:40;;;;;;;6.15;5.00;;;8.10;99.30;;;;;;4965482;28;20208;-91
2022/11/06 16:09:15;;;;;;;4.70;4.20;;;8.20;99.90;;;;;;4989731;28;20314;-92
2022/11/06 16:12:06;;;;;;;6.28;4.03;;;8.10;99.60;;;;;;4993231;28;20200;-93
2022/11/06 16:14:38;;;;;;;4.47;4.07;;;8.10;99.50;;;;;;4985520;28;20586;-91
2022/11/06 16:17:10;;;;;;;4.93;4.45;;;8.00;99.60;;;;;;4992666;28;20200;-93
2022/11/06 16:19:42;;;;;;;4.30;3.90;;;8.00;99.90;;;;;;4990304;28;20215;-93
2022/11/06 16:22:34;;;;;;;5.05;4.30;;;7.90;99.90;;;;;;4953335;28;20213;-93
2022/11/06 16:25:06;;;;;;;4.68;4.28;;;7.80;99.90;;;;;;4951303;28;20239;-93
2022/11/06 16:27:36;;;;;;;6.88;4.70;;;7.80;99.90;;;;;;4951520;28;20293;-93
2022/11/06 16:30:05;;;;;;;5.10;4.13;;;7.90;99.90;;;;;;4956556;28;20257;-93
2022/11/06 16:32:38;;;;;;;5.05;4.45;;;7.80;99.90;;;;;;4973041;28;20201;-92
2022/11/06 16:35:32;;;;;;;6.22;5.05;;;7.70;99.90;;;;;;4966626;28;20642;-93
2022/11/06 16:38:36;;;;;;;5.53;4.60;;;7.80;99.90;;;;;;4971056;28;20216;-92
2022/11/06 16:41:36;;;;;;;5.00;4.50;;;7.70;99.90;;;;;;4965435;28;20288;-92
2022/11/06 16:44:22;;;;;;;5.25;4.72;;;7.80;99.90;;;;;;4966080;28;20216;-92
2022/11/06 16:47:13;;;;;;;6.40;5.50;;;7.70;99.90;;;;;;4989703;28;20307;-93
2022/11/06 16:49:41;;;;;;;5.13;4.43;;;7.70;99.90;;;;;;5005742;28;20655;-93
2022/11/06 16:55:05;;;;;;;5.40;4.70;;;7.60;99.90;;;;;;5014576;28;20223;-93
2022/11/06 16:57:36;;;;;;;6.47;5.00;;;7.50;99.90;;;;;;5018040;28;20225;-94
2022/11/06 17:00:07;;;;;;;6.82;5.88;;;7.40;99.90;;;;;;5024696;28;20207;-93
2022/11/06 17:02:37;;;;;;;8.18;6.28;;;7.30;99.90;;;;;;5021455;28;20585;-95
2022/11/06 17:05:16;;;;;;;7.65;6.22;;;7.30;99.90;;;;;;5020103;28;20245;-91
2022/11/06 17:11:28;;;;;;;10.05;7.10;;;7.30;99.90;;;;;;4948854;28;20208;-93
2022/11/06 17:13:55;;;;;;;11.45;8.32;;;7.30;99.90;;;;;;4945645;28;20293;-94
2022/11/06 17:20:00;;;;;;;13.98;10.98;;;7.30;99.90;;;;;;4918516;29;20362;-91
2022/11/06 17:22:27;;;;;;;15.25;11.63;;;7.30;99.90;;;;;;4917010;29;20258;-92
2022/11/06 17:24:55;;;;;;;16.02;11.05;;;7.30;99.90;;;;;;4915051;29;20238;-93
2022/11/06 17:27:34;;;;;;;20.30;14.38;;;7.30;99.90;;;;;;4918829;29;20257;-91
2022/11/06 17:30:13;;;;;;;26.55;18.55;;;7.20;99.90;;;;;;4944422;28;20705;-93
2022/11/06 17:32:58;;;;;;;28.30;19.20;;;7.20;99.90;;;;;;4952884;28;20211;-94
2022/11/06 17:35:36;;;;;;;28.90;21.02;;;7.30;99.90;;;;;;4956551;28;20319;-93
2022/11/06 17:38:03;;;;;;;34.42;24.67;;;7.40;99.90;;;;;;4952226;29;20717;-94
2022/11/06 17:40:32;;;;;;;38.67;27.10;;;7.50;99.90;;;;;;4954511;28;20293;-93
2022/11/06 17:43:45;;;;;;;43.80;30.52;;;7.50;99.90;;;;;;4961286;28;20205;-93
2022/11/06 17:49:11;;;;;;;34.40;23.83;;;7.40;99.90;;;;;;4895459;29;20222;-95
2022/11/06 17:54:30;;;;;;;27.45;20.05;;;7.40;99.90;;;;;;4967491;28;20225;-94
2022/11/06 17:57:23;;;;;;;23.77;18.35;;;7.40;99.90;;;;;;4925850;29;20595;-93
2022/11/06 17:59:50;;;;;;;26.25;19.50;;;7.30;99.90;;;;;;4923960;29;20273;-93
2022/11/06 18:02:22;;;;;;;25.23;18.92;;;7.30;99.90;;;;;;4925142;29;20238;-93
2022/11/06 18:11:12;;;;;;;21.98;16.33;;;7.20;99.90;;;;;;5048652;23;20707;-94
2022/11/06 18:19:34;;;;;;;22.17;14.98;;;7.20;99.90;;;;;;4961734;28;20224;-91
2022/11/06 18:22:10;;;;;;;20.50;13.80;;;7.20;99.90;;;;;;4960231;28;20209;-93
2022/11/06 18:27:59;;;;;;;14.93;11.50;;;7.20;99.90;;;;;;4962241;28;20197;-94
2022/11/06 18:33:28;;;;;;;16.35;11.63;;;7.10;99.90;;;;;;4909340;29;20222;-93
2022/11/06 18:36:02;;;;;;;16.70;11.57;;;7.10;99.90;;;;;;4893719;29;20366;-93
2022/11/06 18:38:51;;;;;;;16.38;10.93;;;7.10;99.90;;;;;;4899155;29;20216;-93